sensor_id;sensor_type;location;lat;lon;timestamp;P1;durP1;ratioP1;P2;durP2;ratioP2
86144;SDS011;76801;42.716;23.178;2024-03-29T00:01:15;1.67;;;0.47;;
86144;SDS011;76801;42.716;23.178;2024-03-29T00:03:41;3.85;;;0.75;;
86144;SDS011;76801;42.716;23.178;2024-03-29T00:06:07;4.00;;;0.85;;
86144;SDS011;76801;42.716;23.178;2024-03-29T00:08:32;2.50;;;0.40;;
86144;SDS011;76801;42.716;23.178;2024-03-29T00:10:58;2.40;;;1.35;;
86144;SDS011;76801;42.716;23.178;2024-03-29T00:13:23;2.55;;;0.68;;
86144;SDS011;76801;42.716;23.178;2024-03-29T00:15:48;2.40;;;0.68;;
86144;SDS011;76801;42.716;23.178;2024-03-29T00:18:14;4.85;;;0.77;;
86144;SDS011;76801;42.716;23.178;2024-03-29T00:20:39;3.30;;;0.60;;
86144;SDS011;76801;42.716;23.178;2024-03-29T00:23:05;3.25;;;1.55;;
86144;SDS011;76801;42.716;23.178;2024-03-29T00:25:30;3.75;;;0.63;;
86144;SDS011;76801;42.716;23.178;2024-03-29T00:27:55;2.60;;;0.68;;
86144;SDS011;76801;42.716;23.178;2024-03-29T00:30:21;5.25;;;0.60;;
86144;SDS011;76801;42.716;23.178;2024-03-29T00:32:46;2.17;;;0.68;;
86144;SDS011;76801;42.716;23.178;2024-03-29T00:35:12;4.07;;;0.85;;
86144;SDS011;76801;42.716;23.178;2024-03-29T00:37:39;3.70;;;0.40;;
86144;SDS011;76801;42.716;23.178;2024-03-29T00:40:05;3.08;;;0.35;;
86144;SDS011;76801;42.716;23.178;2024-03-29T00:42:30;1.10;;;0.35;;
86144;SDS011;76801;42.716;23.178;2024-03-29T00:44:56;2.75;;;0.50;;
86144;SDS011;76801;42.716;23.178;2024-03-29T00:47:21;2.28;;;0.65;;
86144;SDS011;76801;42.716;23.178;2024-03-29T00:49:46;5.13;;;1.38;;
86144;SDS011;76801;42.716;23.178;2024-03-29T00:52:12;3.15;;;0.70;;
86144;SDS011;76801;42.716;23.178;2024-03-29T00:54:37;1.85;;;0.40;;
86144;SDS011;76801;42.716;23.178;2024-03-29T00:57:02;2.17;;;0.43;;
86144;SDS011;76801;42.716;23.178;2024-03-29T00:59:28;2.30;;;0.52;;
86144;SDS011;76801;42.716;23.178;2024-03-29T01:01:53;2.03;;;0.32;;
86144;SDS011;76801;42.716;23.178;2024-03-29T01:04:18;2.67;;;0.47;;
86144;SDS011;76801;42.716;23.178;2024-03-29T01:06:44;1.48;;;0.52;;
86144;SDS011;76801;42.716;23.178;2024-03-29T01:09:09;3.05;;;0.30;;
86144;SDS011;76801;42.716;23.178;2024-03-29T01:11:38;3.75;;;0.63;;
86144;SDS011;76801;42.716;23.178;2024-03-29T01:14:04;2.25;;;0.50;;
86144;SDS011;76801;42.716;23.178;2024-03-29T01:16:30;3.33;;;0.40;;
86144;SDS011;76801;42.716;23.178;2024-03-29T01:18:57;3.80;;;0.55;;
86144;SDS011;76801;42.716;23.178;2024-03-29T01:21:23;2.55;;;0.40;;
86144;SDS011;76801;42.716;23.178;2024-03-29T01:23:49;1.90;;;0.25;;
86144;SDS011;76801;42.716;23.178;2024-03-29T01:26:14;2.78;;;0.45;;
86144;SDS011;76801;42.716;23.178;2024-03-29T01:28:42;2.72;;;0.57;;
86144;SDS011;76801;42.716;23.178;2024-03-29T01:31:08;3.13;;;0.43;;
86144;SDS011;76801;42.716;23.178;2024-03-29T01:33:33;3.50;;;0.35;;
86144;SDS011;76801;42.716;23.178;2024-03-29T01:36:02;3.08;;;0.50;;
86144;SDS011;76801;42.716;23.178;2024-03-29T01:38:28;2.00;;;0.55;;
86144;SDS011;76801;42.716;23.178;2024-03-29T01:40:53;1.50;;;0.22;;
86144;SDS011;76801;42.716;23.178;2024-03-29T01:43:19;2.88;;;0.30;;
86144;SDS011;76801;42.716;23.178;2024-03-29T01:45:44;3.15;;;0.57;;
86144;SDS011;76801;42.716;23.178;2024-03-29T01:48:14;1.67;;;0.32;;
86144;SDS011;76801;42.716;23.178;2024-03-29T01:50:41;3.90;;;0.40;;
86144;SDS011;76801;42.716;23.178;2024-03-29T01:53:07;1.85;;;0.43;;
86144;SDS011;76801;42.716;23.178;2024-03-29T01:55:33;2.60;;;0.30;;
86144;SDS011;76801;42.716;23.178;2024-03-29T01:58:00;4.57;;;0.75;;
86144;SDS011;76801;42.716;23.178;2024-03-29T02:00:25;2.25;;;0.52;;
86144;SDS011;76801;42.716;23.178;2024-03-29T02:02:52;1.73;;;0.30;;
86144;SDS011;76801;42.716;23.178;2024-03-29T02:05:18;2.47;;;0.40;;
86144;SDS011;76801;42.716;23.178;2024-03-29T02:07:43;1.75;;;0.30;;
86144;SDS011;76801;42.716;23.178;2024-03-29T02:10:12;4.00;;;0.55;;
86144;SDS011;76801;42.716;23.178;2024-03-29T02:12:38;3.08;;;0.73;;
86144;SDS011;76801;42.716;23.178;2024-03-29T02:15:04;4.85;;;0.55;;
86144;SDS011;76801;42.716;23.178;2024-03-29T02:17:30;1.55;;;0.50;;
86144;SDS011;76801;42.716;23.178;2024-03-29T02:19:56;0.90;;;0.20;;
86144;SDS011;76801;42.716;23.178;2024-03-29T02:22:22;3.22;;;0.98;;
86144;SDS011;76801;42.716;23.178;2024-03-29T02:24:50;3.00;;;0.68;;
86144;SDS011;76801;42.716;23.178;2024-03-29T02:27:16;1.88;;;0.47;;
86144;SDS011;76801;42.716;23.178;2024-03-29T02:29:42;1.30;;;0.30;;
86144;SDS011;76801;42.716;23.178;2024-03-29T02:32:07;1.75;;;0.30;;
86144;SDS011;76801;42.716;23.178;2024-03-29T02:34:33;2.30;;;0.55;;
86144;SDS011;76801;42.716;23.178;2024-03-29T02:36:58;3.65;;;0.57;;
86144;SDS011;76801;42.716;23.178;2024-03-29T02:39:24;1.55;;;0.35;;
86144;SDS011;76801;42.716;23.178;2024-03-29T02:41:49;2.10;;;0.52;;
86144;SDS011;76801;42.716;23.178;2024-03-29T02:44:15;2.67;;;0.43;;
86144;SDS011;76801;42.716;23.178;2024-03-29T02:46:43;3.75;;;0.30;;
86144;SDS011;76801;42.716;23.178;2024-03-29T02:49:08;1.67;;;0.32;;
86144;SDS011;76801;42.716;23.178;2024-03-29T02:51:37;2.00;;;0.40;;
86144;SDS011;76801;42.716;23.178;2024-03-29T02:54:02;1.88;;;0.45;;
86144;SDS011;76801;42.716;23.178;2024-03-29T02:56:28;1.88;;;0.30;;
86144;SDS011;76801;42.716;23.178;2024-03-29T02:58:54;2.65;;;0.32;;
86144;SDS011;76801;42.716;23.178;2024-03-29T03:01:20;4.93;;;0.63;;
86144;SDS011;76801;42.716;23.178;2024-03-29T03:03:45;4.25;;;0.93;;
86144;SDS011;76801;42.716;23.178;2024-03-29T03:06:11;2.58;;;0.63;;
86144;SDS011;76801;42.716;23.178;2024-03-29T03:08:36;0.82;;;0.47;;
86144;SDS011;76801;42.716;23.178;2024-03-29T03:11:20;2.13;;;0.30;;
86144;SDS011;76801;42.716;23.178;2024-03-29T03:13:45;1.23;;;0.17;;
86144;SDS011;76801;42.716;23.178;2024-03-29T03:16:10;4.78;;;0.55;;
86144;SDS011;76801;42.716;23.178;2024-03-29T03:18:36;2.53;;;0.57;;
86144;SDS011;76801;42.716;23.178;2024-03-29T03:21:01;4.05;;;0.45;;
86144;SDS011;76801;42.716;23.178;2024-03-29T03:23:27;2.35;;;0.90;;
86144;SDS011;76801;42.716;23.178;2024-03-29T03:25:54;1.73;;;0.82;;
86144;SDS011;76801;42.716;23.178;2024-03-29T03:28:20;2.00;;;0.57;;
86144;SDS011;76801;42.716;23.178;2024-03-29T03:30:45;3.05;;;0.90;;
86144;SDS011;76801;42.716;23.178;2024-03-29T03:33:11;2.17;;;0.28;;
86144;SDS011;76801;42.716;23.178;2024-03-29T03:35:36;1.40;;;0.45;;
86144;SDS011;76801;42.716;23.178;2024-03-29T03:38:01;4.88;;;0.45;;
86144;SDS011;76801;42.716;23.178;2024-03-29T03:40:27;2.25;;;0.52;;
86144;SDS011;76801;42.716;23.178;2024-03-29T03:42:52;3.17;;;0.70;;
86144;SDS011;76801;42.716;23.178;2024-03-29T03:45:17;3.28;;;0.63;;
86144;SDS011;76801;42.716;23.178;2024-03-29T03:47:43;3.67;;;0.90;;
86144;SDS011;76801;42.716;23.178;2024-03-29T03:50:08;3.35;;;0.57;;
86144;SDS011;76801;42.716;23.178;2024-03-29T03:52:34;2.45;;;0.40;;
86144;SDS011;76801;42.716;23.178;2024-03-29T03:54:59;5.13;;;0.60;;
86144;SDS011;76801;42.716;23.178;2024-03-29T03:57:25;2.30;;;0.40;;
86144;SDS011;76801;42.716;23.178;2024-03-29T03:59:50;5.15;;;0.40;;
86144;SDS011;76801;42.716;23.178;2024-03-29T04:02:15;3.70;;;0.35;;
86144;SDS011;76801;42.716;23.178;2024-03-29T04:04:41;2.05;;;0.32;;
86144;SDS011;76801;42.716;23.178;2024-03-29T04:07:06;1.80;;;0.35;;
86144;SDS011;76801;42.716;23.178;2024-03-29T04:09:32;2.72;;;0.43;;
86144;SDS011;76801;42.716;23.178;2024-03-29T04:11:57;3.38;;;0.65;;
86144;SDS011;76801;42.716;23.178;2024-03-29T04:14:23;2.72;;;0.80;;
86144;SDS011;76801;42.716;23.178;2024-03-29T04:16:48;2.50;;;0.85;;
86144;SDS011;76801;42.716;23.178;2024-03-29T04:19:13;6.03;;;1.13;;
86144;SDS011;76801;42.716;23.178;2024-03-29T04:21:39;6.13;;;1.23;;
86144;SDS011;76801;42.716;23.178;2024-03-29T04:24:04;2.38;;;0.73;;
86144;SDS011;76801;42.716;23.178;2024-03-29T04:26:32;3.05;;;0.93;;
86144;SDS011;76801;42.716;23.178;2024-03-29T04:28:58;3.10;;;0.38;;
86144;SDS011;76801;42.716;23.178;2024-03-29T04:31:23;2.55;;;0.45;;
86144;SDS011;76801;42.716;23.178;2024-03-29T04:33:49;5.43;;;1.33;;
86144;SDS011;76801;42.716;23.178;2024-03-29T04:36:14;4.70;;;1.13;;
86144;SDS011;76801;42.716;23.178;2024-03-29T04:38:39;4.10;;;0.85;;
86144;SDS011;76801;42.716;23.178;2024-03-29T04:41:05;2.67;;;1.35;;
86144;SDS011;76801;42.716;23.178;2024-03-29T04:43:30;2.55;;;0.70;;
86144;SDS011;76801;42.716;23.178;2024-03-29T04:46:02;11.30;;;4.07;;
86144;SDS011;76801;42.716;23.178;2024-03-29T04:48:29;13.70;;;3.83;;
86144;SDS011;76801;42.716;23.178;2024-03-29T04:50:55;15.20;;;4.82;;
86144;SDS011;76801;42.716;23.178;2024-03-29T04:53:21;17.58;;;6.50;;
86144;SDS011;76801;42.716;23.178;2024-03-29T04:55:52;13.20;;;4.88;;
86144;SDS011;76801;42.716;23.178;2024-03-29T04:58:18;10.75;;;4.78;;
86144;SDS011;76801;42.716;23.178;2024-03-29T05:00:44;5.72;;;1.83;;
86144;SDS011;76801;42.716;23.178;2024-03-29T05:03:09;4.82;;;2.00;;
86144;SDS011;76801;42.716;23.178;2024-03-29T05:05:34;3.75;;;1.05;;
86144;SDS011;76801;42.716;23.178;2024-03-29T05:08:00;5.72;;;1.35;;
86144;SDS011;76801;42.716;23.178;2024-03-29T05:10:26;5.72;;;1.27;;
86144;SDS011;76801;42.716;23.178;2024-03-29T05:12:52;4.20;;;1.02;;
86144;SDS011;76801;42.716;23.178;2024-03-29T05:15:19;3.53;;;0.90;;
86144;SDS011;76801;42.716;23.178;2024-03-29T05:17:44;3.97;;;1.00;;
86144;SDS011;76801;42.716;23.178;2024-03-29T05:20:10;3.30;;;0.95;;
86144;SDS011;76801;42.716;23.178;2024-03-29T05:22:35;2.40;;;0.60;;
86144;SDS011;76801;42.716;23.178;2024-03-29T05:25:01;1.63;;;0.60;;
86144;SDS011;76801;42.716;23.178;2024-03-29T05:27:26;3.38;;;0.63;;
86144;SDS011;76801;42.716;23.178;2024-03-29T05:29:52;3.88;;;0.70;;
86144;SDS011;76801;42.716;23.178;2024-03-29T05:32:17;5.95;;;0.98;;
86144;SDS011;76801;42.716;23.178;2024-03-29T05:34:43;6.00;;;1.10;;
86144;SDS011;76801;42.716;23.178;2024-03-29T05:37:09;3.03;;;0.60;;
86144;SDS011;76801;42.716;23.178;2024-03-29T05:39:34;6.88;;;1.27;;
86144;SDS011;76801;42.716;23.178;2024-03-29T05:41:59;6.95;;;1.38;;
86144;SDS011;76801;42.716;23.178;2024-03-29T05:44:25;6.05;;;1.15;;
86144;SDS011;76801;42.716;23.178;2024-03-29T05:46:50;6.15;;;2.00;;
86144;SDS011;76801;42.716;23.178;2024-03-29T05:49:15;7.28;;;1.30;;
86144;SDS011;76801;42.716;23.178;2024-03-29T05:51:41;15.48;;;2.30;;
86144;SDS011;76801;42.716;23.178;2024-03-29T05:54:07;10.20;;;1.58;;
86144;SDS011;76801;42.716;23.178;2024-03-29T05:56:32;5.88;;;0.85;;
86144;SDS011;76801;42.716;23.178;2024-03-29T05:58:58;6.07;;;1.23;;
86144;SDS011;76801;42.716;23.178;2024-03-29T06:01:23;6.47;;;1.42;;
86144;SDS011;76801;42.716;23.178;2024-03-29T06:03:49;8.38;;;1.73;;
86144;SDS011;76801;42.716;23.178;2024-03-29T06:06:19;6.88;;;1.60;;
86144;SDS011;76801;42.716;23.178;2024-03-29T06:08:48;5.28;;;0.98;;
86144;SDS011;76801;42.716;23.178;2024-03-29T06:11:14;6.05;;;1.15;;
86144;SDS011;76801;42.716;23.178;2024-03-29T06:13:39;2.03;;;0.75;;
86144;SDS011;76801;42.716;23.178;2024-03-29T06:16:27;2.42;;;0.73;;
86144;SDS011;76801;42.716;23.178;2024-03-29T06:19:12;2.67;;;0.52;;
86144;SDS011;76801;42.716;23.178;2024-03-29T06:21:38;5.60;;;1.23;;
86144;SDS011;76801;42.716;23.178;2024-03-29T06:24:07;6.95;;;0.75;;
86144;SDS011;76801;42.716;23.178;2024-03-29T06:26:34;3.88;;;0.52;;
86144;SDS011;76801;42.716;23.178;2024-03-29T06:29:00;2.28;;;0.45;;
86144;SDS011;76801;42.716;23.178;2024-03-29T06:31:26;3.10;;;0.60;;
86144;SDS011;76801;42.716;23.178;2024-03-29T06:33:52;2.97;;;0.40;;
86144;SDS011;76801;42.716;23.178;2024-03-29T06:36:17;2.72;;;0.40;;
86144;SDS011;76801;42.716;23.178;2024-03-29T06:38:42;3.47;;;0.32;;
86144;SDS011;76801;42.716;23.178;2024-03-29T06:41:08;3.28;;;0.25;;
86144;SDS011;76801;42.716;23.178;2024-03-29T06:43:34;4.75;;;0.60;;
86144;SDS011;76801;42.716;23.178;2024-03-29T06:45:59;2.97;;;0.45;;
86144;SDS011;76801;42.716;23.178;2024-03-29T06:48:27;3.17;;;0.50;;
86144;SDS011;76801;42.716;23.178;2024-03-29T06:50:53;2.42;;;0.50;;
86144;SDS011;76801;42.716;23.178;2024-03-29T06:53:19;2.33;;;0.22;;
86144;SDS011;76801;42.716;23.178;2024-03-29T06:55:45;2.38;;;0.50;;
86144;SDS011;76801;42.716;23.178;2024-03-29T06:58:10;2.72;;;0.40;;
86144;SDS011;76801;42.716;23.178;2024-03-29T07:00:36;2.92;;;0.50;;
86144;SDS011;76801;42.716;23.178;2024-03-29T07:03:01;1.40;;;0.52;;
86144;SDS011;76801;42.716;23.178;2024-03-29T07:05:26;2.08;;;0.40;;
86144;SDS011;76801;42.716;23.178;2024-03-29T07:07:52;1.40;;;0.43;;
86144;SDS011;76801;42.716;23.178;2024-03-29T07:10:18;2.97;;;0.40;;
86144;SDS011;76801;42.716;23.178;2024-03-29T07:12:44;4.80;;;0.25;;
86144;SDS011;76801;42.716;23.178;2024-03-29T07:15:09;1.48;;;0.35;;
86144;SDS011;76801;42.716;23.178;2024-03-29T07:17:35;0.93;;;0.20;;
86144;SDS011;76801;42.716;23.178;2024-03-29T07:20:00;3.25;;;0.30;;
86144;SDS011;76801;42.716;23.178;2024-03-29T07:22:25;0.98;;;0.15;;
86144;SDS011;76801;42.716;23.178;2024-03-29T07:24:52;3.22;;;0.60;;
86144;SDS011;76801;42.716;23.178;2024-03-29T07:27:18;3.40;;;0.38;;
86144;SDS011;76801;42.716;23.178;2024-03-29T07:29:45;2.97;;;0.52;;
86144;SDS011;76801;42.716;23.178;2024-03-29T07:32:10;2.97;;;0.65;;
86144;SDS011;76801;42.716;23.178;2024-03-29T07:34:36;1.88;;;0.20;;
86144;SDS011;76801;42.716;23.178;2024-03-29T07:39:29;2.00;;;0.27;;
86144;SDS011;76801;42.716;23.178;2024-03-29T07:41:54;1.70;;;0.25;;
86144;SDS011;76801;42.716;23.178;2024-03-29T07:44:20;2.10;;;0.65;;
86144;SDS011;76801;42.716;23.178;2024-03-29T07:46:45;1.90;;;0.43;;
86144;SDS011;76801;42.716;23.178;2024-03-29T07:49:12;3.35;;;0.52;;
86144;SDS011;76801;42.716;23.178;2024-03-29T07:51:38;1.50;;;0.20;;
86144;SDS011;76801;42.716;23.178;2024-03-29T07:54:04;2.95;;;0.30;;
86144;SDS011;76801;42.716;23.178;2024-03-29T07:56:29;2.88;;;0.10;;
86144;SDS011;76801;42.716;23.178;2024-03-29T07:58:54;3.28;;;0.40;;
86144;SDS011;76801;42.716;23.178;2024-03-29T08:01:20;5.20;;;0.88;;
86144;SDS011;76801;42.716;23.178;2024-03-29T08:03:47;2.92;;;0.20;;
86144;SDS011;76801;42.716;23.178;2024-03-29T08:06:12;2.85;;;0.20;;
86144;SDS011;76801;42.716;23.178;2024-03-29T08:08:38;1.20;;;0.20;;
86144;SDS011;76801;42.716;23.178;2024-03-29T08:11:03;2.40;;;0.20;;
86144;SDS011;76801;42.716;23.178;2024-03-29T08:13:29;1.75;;;0.20;;
86144;SDS011;76801;42.716;23.178;2024-03-29T08:15:57;1.73;;;0.20;;
86144;SDS011;76801;42.716;23.178;2024-03-29T08:18:24;1.92;;;0.57;;
86144;SDS011;76801;42.716;23.178;2024-03-29T08:20:50;1.90;;;0.40;;
86144;SDS011;76801;42.716;23.178;2024-03-29T08:23:15;4.07;;;0.45;;
86144;SDS011;76801;42.716;23.178;2024-03-29T08:25:43;2.78;;;0.25;;
86144;SDS011;76801;42.716;23.178;2024-03-29T08:28:09;4.63;;;0.30;;
86144;SDS011;76801;42.716;23.178;2024-03-29T08:30:35;2.65;;;0.20;;
86144;SDS011;76801;42.716;23.178;2024-03-29T08:33:01;2.25;;;0.40;;
86144;SDS011;76801;42.716;23.178;2024-03-29T08:35:30;1.75;;;0.45;;
86144;SDS011;76801;42.716;23.178;2024-03-29T08:37:57;1.92;;;0.30;;
86144;SDS011;76801;42.716;23.178;2024-03-29T08:40:22;2.47;;;0.47;;
86144;SDS011;76801;42.716;23.178;2024-03-29T08:45:16;2.20;;;0.35;;
86144;SDS011;76801;42.716;23.178;2024-03-29T08:47:41;2.47;;;0.30;;
86144;SDS011;76801;42.716;23.178;2024-03-29T08:50:06;1.70;;;0.70;;
86144;SDS011;76801;42.716;23.178;2024-03-29T08:52:32;2.50;;;0.15;;
86144;SDS011;76801;42.716;23.178;2024-03-29T08:54:58;1.33;;;0.28;;
86144;SDS011;76801;42.716;23.178;2024-03-29T08:57:23;2.50;;;0.30;;
86144;SDS011;76801;42.716;23.178;2024-03-29T08:59:48;2.28;;;0.85;;
86144;SDS011;76801;42.716;23.178;2024-03-29T09:02:14;2.33;;;0.25;;
86144;SDS011;76801;42.716;23.178;2024-03-29T09:04:39;2.47;;;0.30;;
86144;SDS011;76801;42.716;23.178;2024-03-29T09:07:04;1.50;;;0.43;;
86144;SDS011;76801;42.716;23.178;2024-03-29T09:09:31;1.55;;;0.35;;
86144;SDS011;76801;42.716;23.178;2024-03-29T09:11:57;2.05;;;0.40;;
86144;SDS011;76801;42.716;23.178;2024-03-29T09:14:23;4.50;;;0.55;;
86144;SDS011;76801;42.716;23.178;2024-03-29T09:16:49;2.05;;;1.02;;
86144;SDS011;76801;42.716;23.178;2024-03-29T09:19:15;1.38;;;0.20;;
86144;SDS011;76801;42.716;23.178;2024-03-29T09:21:40;1.58;;;0.30;;
86144;SDS011;76801;42.716;23.178;2024-03-29T09:24:06;3.13;;;0.50;;
86144;SDS011;76801;42.716;23.178;2024-03-29T09:26:32;1.98;;;0.52;;
86144;SDS011;76801;42.716;23.178;2024-03-29T09:29:02;1.88;;;0.30;;
86144;SDS011;76801;42.716;23.178;2024-03-29T09:31:27;1.85;;;0.52;;
86144;SDS011;76801;42.716;23.178;2024-03-29T09:33:52;2.00;;;0.47;;
86144;SDS011;76801;42.716;23.178;2024-03-29T09:36:22;1.33;;;0.13;;
86144;SDS011;76801;42.716;23.178;2024-03-29T09:38:48;1.45;;;0.63;;
86144;SDS011;76801;42.716;23.178;2024-03-29T09:41:15;2.42;;;0.60;;
86144;SDS011;76801;42.716;23.178;2024-03-29T09:43:42;1.75;;;0.47;;
86144;SDS011;76801;42.716;23.178;2024-03-29T09:46:14;1.35;;;0.43;;
86144;SDS011;76801;42.716;23.178;2024-03-29T09:48:40;1.77;;;0.38;;
86144;SDS011;76801;42.716;23.178;2024-03-29T09:51:07;1.10;;;0.45;;
86144;SDS011;76801;42.716;23.178;2024-03-29T09:53:34;1.92;;;0.80;;
86144;SDS011;76801;42.716;23.178;2024-03-29T09:56:03;2.95;;;0.32;;
86144;SDS011;76801;42.716;23.178;2024-03-29T09:58:30;1.45;;;0.32;;
86144;SDS011;76801;42.716;23.178;2024-03-29T10:00:56;4.25;;;0.57;;
86144;SDS011;76801;42.716;23.178;2024-03-29T10:03:23;2.65;;;0.85;;
86144;SDS011;76801;42.716;23.178;2024-03-29T10:05:54;5.30;;;2.03;;
86144;SDS011;76801;42.716;23.178;2024-03-29T10:08:21;1.42;;;0.40;;
86144;SDS011;76801;42.716;23.178;2024-03-29T10:10:48;2.13;;;0.55;;
86144;SDS011;76801;42.716;23.178;2024-03-29T10:13:14;3.20;;;0.40;;
86144;SDS011;76801;42.716;23.178;2024-03-29T10:15:39;2.17;;;0.35;;
86144;SDS011;76801;42.716;23.178;2024-03-29T10:18:10;4.30;;;1.00;;
86144;SDS011;76801;42.716;23.178;2024-03-29T10:20:36;1.25;;;0.43;;
86144;SDS011;76801;42.716;23.178;2024-03-29T10:23:01;2.85;;;0.65;;
86144;SDS011;76801;42.716;23.178;2024-03-29T10:25:31;1.75;;;0.45;;
86144;SDS011;76801;42.716;23.178;2024-03-29T10:27:57;3.78;;;0.57;;
86144;SDS011;76801;42.716;23.178;2024-03-29T10:30:24;3.38;;;0.40;;
86144;SDS011;76801;42.716;23.178;2024-03-29T10:32:50;3.45;;;0.93;;
86144;SDS011;76801;42.716;23.178;2024-03-29T10:35:16;2.75;;;0.40;;
86144;SDS011;76801;42.716;23.178;2024-03-29T10:37:42;2.35;;;0.43;;
86144;SDS011;76801;42.716;23.178;2024-03-29T10:40:09;2.92;;;0.45;;
86144;SDS011;76801;42.716;23.178;2024-03-29T10:42:38;4.88;;;0.60;;
86144;SDS011;76801;42.716;23.178;2024-03-29T10:45:07;2.95;;;0.57;;
86144;SDS011;76801;42.716;23.178;2024-03-29T10:47:33;3.20;;;0.45;;
86144;SDS011;76801;42.716;23.178;2024-03-29T10:49:59;2.20;;;0.40;;
86144;SDS011;76801;42.716;23.178;2024-03-29T10:52:25;2.35;;;0.63;;
86144;SDS011;76801;42.716;23.178;2024-03-29T10:54:52;2.58;;;0.45;;
86144;SDS011;76801;42.716;23.178;2024-03-29T10:57:22;1.67;;;0.32;;
86144;SDS011;76801;42.716;23.178;2024-03-29T11:03:30;2.95;;;0.52;;
86144;SDS011;76801;42.716;23.178;2024-03-29T11:05:38;3.08;;;0.43;;
86144;SDS011;76801;42.716;23.178;2024-03-29T11:08:09;1.70;;;0.55;;
86144;SDS011;76801;42.716;23.178;2024-03-29T11:10:36;2.20;;;0.80;;
86144;SDS011;76801;42.716;23.178;2024-03-29T11:15:40;2.97;;;0.90;;
86144;SDS011;76801;42.716;23.178;2024-03-29T11:18:06;2.33;;;0.77;;
86144;SDS011;76801;42.716;23.178;2024-03-29T11:20:33;1.60;;;0.40;;
86144;SDS011;76801;42.716;23.178;2024-03-29T11:23:06;2.60;;;0.40;;
86144;SDS011;76801;42.716;23.178;2024-03-29T11:25:38;2.65;;;0.60;;
86144;SDS011;76801;42.716;23.178;2024-03-29T11:28:06;3.22;;;0.70;;
86144;SDS011;76801;42.716;23.178;2024-03-29T11:30:47;2.15;;;0.65;;
86144;SDS011;76801;42.716;23.178;2024-03-29T11:36:00;4.88;;;1.17;;
86144;SDS011;76801;42.716;23.178;2024-03-29T11:38:34;2.95;;;0.68;;
86144;SDS011;76801;42.716;23.178;2024-03-29T11:41:07;2.03;;;0.35;;
86144;SDS011;76801;42.716;23.178;2024-03-29T11:43:35;3.67;;;0.70;;
86144;SDS011;76801;42.716;23.178;2024-03-29T11:46:02;4.50;;;0.55;;
86144;SDS011;76801;42.716;23.178;2024-03-29T11:48:30;6.72;;;0.52;;
86144;SDS011;76801;42.716;23.178;2024-03-29T11:50:57;3.13;;;0.47;;
86144;SDS011;76801;42.716;23.178;2024-03-29T11:53:23;4.80;;;0.43;;
86144;SDS011;76801;42.716;23.178;2024-03-29T11:55:49;3.45;;;0.45;;
86144;SDS011;76801;42.716;23.178;2024-03-29T11:58:22;4.07;;;0.50;;
86144;SDS011;76801;42.716;23.178;2024-03-29T12:00:48;2.83;;;0.55;;
86144;SDS011;76801;42.716;23.178;2024-03-29T12:03:15;6.88;;;0.52;;
86144;SDS011;76801;42.716;23.178;2024-03-29T12:05:42;5.15;;;0.73;;
86144;SDS011;76801;42.716;23.178;2024-03-29T12:08:08;2.92;;;0.57;;
86144;SDS011;76801;42.716;23.178;2024-03-29T12:10:35;2.13;;;0.35;;
86144;SDS011;76801;42.716;23.178;2024-03-29T12:13:01;2.83;;;0.38;;
86144;SDS011;76801;42.716;23.178;2024-03-29T12:15:27;2.22;;;0.63;;
86144;SDS011;76801;42.716;23.178;2024-03-29T12:17:57;3.60;;;0.70;;
86144;SDS011;76801;42.716;23.178;2024-03-29T12:20:24;3.22;;;0.43;;
86144;SDS011;76801;42.716;23.178;2024-03-29T12:22:50;5.43;;;0.60;;
86144;SDS011;76801;42.716;23.178;2024-03-29T12:25:15;2.95;;;0.20;;
86144;SDS011;76801;42.716;23.178;2024-03-29T12:27:42;3.00;;;0.30;;
86144;SDS011;76801;42.716;23.178;2024-03-29T12:30:08;3.53;;;0.38;;
86144;SDS011;76801;42.716;23.178;2024-03-29T12:32:34;1.67;;;0.65;;
86144;SDS011;76801;42.716;23.178;2024-03-29T12:35:33;4.45;;;0.63;;
86144;SDS011;76801;42.716;23.178;2024-03-29T12:37:52;1.83;;;0.30;;
86144;SDS011;76801;42.716;23.178;2024-03-29T12:40:18;1.83;;;0.20;;
86144;SDS011;76801;42.716;23.178;2024-03-29T12:42:50;4.20;;;1.02;;
86144;SDS011;76801;42.716;23.178;2024-03-29T12:45:19;2.25;;;0.40;;
86144;SDS011;76801;42.716;23.178;2024-03-29T12:47:47;3.40;;;0.22;;
86144;SDS011;76801;42.716;23.178;2024-03-29T12:50:27;1.65;;;0.22;;
86144;SDS011;76801;42.716;23.178;2024-03-29T12:52:57;5.47;;;0.57;;
86144;SDS011;76801;42.716;23.178;2024-03-29T12:55:30;2.75;;;0.55;;
86144;SDS011;76801;42.716;23.178;2024-03-29T13:00:25;2.20;;;0.40;;
86144;SDS011;76801;42.716;23.178;2024-03-29T13:02:51;2.55;;;0.30;;
86144;SDS011;76801;42.716;23.178;2024-03-29T13:05:16;3.58;;;0.50;;
86144;SDS011;76801;42.716;23.178;2024-03-29T13:07:42;1.30;;;0.17;;
86144;SDS011;76801;42.716;23.178;2024-03-29T13:10:08;1.23;;;0.22;;
86144;SDS011;76801;42.716;23.178;2024-03-29T13:12:44;5.20;;;0.43;;
86144;SDS011;76801;42.716;23.178;2024-03-29T13:15:15;4.47;;;0.35;;
86144;SDS011;76801;42.716;23.178;2024-03-29T13:17:46;2.38;;;0.32;;
86144;SDS011;76801;42.716;23.178;2024-03-29T13:20:13;2.47;;;0.75;;
86144;SDS011;76801;42.716;23.178;2024-03-29T13:22:40;5.70;;;0.60;;
86144;SDS011;76801;42.716;23.178;2024-03-29T13:25:14;1.63;;;0.38;;
86144;SDS011;76801;42.716;23.178;2024-03-29T13:27:40;2.03;;;0.25;;
86144;SDS011;76801;42.716;23.178;2024-03-29T13:30:06;1.58;;;0.40;;
86144;SDS011;76801;42.716;23.178;2024-03-29T13:32:36;1.40;;;0.43;;
86144;SDS011;76801;42.716;23.178;2024-03-29T13:35:03;5.43;;;0.73;;
86144;SDS011;76801;42.716;23.178;2024-03-29T13:37:34;1.70;;;0.28;;
86144;SDS011;76801;42.716;23.178;2024-03-29T13:40:00;4.40;;;0.63;;
86144;SDS011;76801;42.716;23.178;2024-03-29T13:42:25;1.42;;;0.22;;
86144;SDS011;76801;42.716;23.178;2024-03-29T13:44:51;1.88;;;0.35;;
86144;SDS011;76801;42.716;23.178;2024-03-29T13:47:19;2.30;;;0.20;;
86144;SDS011;76801;42.716;23.178;2024-03-29T13:49:45;3.88;;;0.57;;
86144;SDS011;76801;42.716;23.178;2024-03-29T13:52:12;1.77;;;0.38;;
86144;SDS011;76801;42.716;23.178;2024-03-29T13:54:42;1.45;;;0.40;;
86144;SDS011;76801;42.716;23.178;2024-03-29T13:57:08;3.80;;;0.52;;
86144;SDS011;76801;42.716;23.178;2024-03-29T13:59:33;3.97;;;0.38;;
86144;SDS011;76801;42.716;23.178;2024-03-29T14:01:59;2.22;;;0.40;;
86144;SDS011;76801;42.716;23.178;2024-03-29T14:04:24;3.90;;;0.35;;
86144;SDS011;76801;42.716;23.178;2024-03-29T14:06:49;3.55;;;0.65;;
86144;SDS011;76801;42.716;23.178;2024-03-29T14:09:16;1.80;;;0.32;;
86144;SDS011;76801;42.716;23.178;2024-03-29T14:11:41;2.08;;;0.47;;
86144;SDS011;76801;42.716;23.178;2024-03-29T14:14:09;1.95;;;0.43;;
86144;SDS011;76801;42.716;23.178;2024-03-29T14:16:35;2.08;;;0.52;;
86144;SDS011;76801;42.716;23.178;2024-03-29T14:19:02;2.28;;;0.40;;
86144;SDS011;76801;42.716;23.178;2024-03-29T14:21:27;1.77;;;0.20;;
86144;SDS011;76801;42.716;23.178;2024-03-29T14:23:54;1.55;;;0.20;;
86144;SDS011;76801;42.716;23.178;2024-03-29T14:26:19;2.25;;;0.57;;
86144;SDS011;76801;42.716;23.178;2024-03-29T14:28:45;2.00;;;0.50;;
86144;SDS011;76801;42.716;23.178;2024-03-29T14:31:10;3.95;;;0.43;;
86144;SDS011;76801;42.716;23.178;2024-03-29T14:33:35;1.83;;;0.32;;
86144;SDS011;76801;42.716;23.178;2024-03-29T14:36:02;2.67;;;0.20;;
86144;SDS011;76801;42.716;23.178;2024-03-29T14:38:28;3.38;;;0.65;;
86144;SDS011;76801;42.716;23.178;2024-03-29T14:40:54;1.42;;;0.40;;
86144;SDS011;76801;42.716;23.178;2024-03-29T14:43:20;1.55;;;0.32;;
86144;SDS011;76801;42.716;23.178;2024-03-29T14:45:46;3.03;;;0.45;;